Wednesday, April 25, 2018, 12:22 PM GMT
Back to Local

CYBG, Bagotville, Que.

Location: , , Canada Lat: 48.333
Local Time: 12:22 PM GMT (12:22 GMT) Lon: -71
Time Zone: GMT Elev: 521 ft

Show me the last for .
Show Decoded

2018-04-25 12:00 METAR CYBG 251200Z 09002KT 4SM -SHRA BR FEW003 OVC050 07/06 A3003 RMK SF1SC7
                 SLP175 =
2018-04-25 11:20 METAR CYBG 251120Z 11003KT 6SM -SHRA BR FEW003 OVC055 05/05 A3005 RMK SF1SC7
                 SLP181 =
2018-04-25 11:00 METAR CYBG 251100Z 06008KT 10SM -SHRA MIFG FEW003 OVC055 06/05 A3005 RMK SF1SC8
                 PCPN VRY LGT SLP180 =
2018-04-25 10:24 METAR CYBG 251024Z 16003KT 6SM -SHRA BR BKN048 OVC068 08/07 A3004 RMK SC6AC2
                 SLP175
2018-04-25 10:00 METAR CYBG 251000Z 26005KT 3SM -SHRA BR OVC048 08/07 A3004 RMK SC8 VIS VRB 2-4
                 SLP176 =
2018-04-25 09:41 METAR CYBG 250941Z 28006KT 3SM -SHRA BR OVC050 08/07 A3003 RMK SC8 VIS VRB 2-4
                 SLP173 =
2018-04-25 09:26 METAR CYBG 250926Z 28006KT 4SM -SHRA BR OVC036 09/07 A3003 RMK SC8 SLP171 =
2018-04-25 09:12 METAR CYBG 250912Z 26005KT 4SM SHRA BR OVC037 09/07 A3003 RMK SC8 SLP171 =
2018-04-25 09:00 METAR CYBG 250900Z 25007KT 4SM -SHRA BR OVC059 10/07 A3002 RMK SC8 SLP170 =
2018-04-25 08:00 METAR CYBG 250800Z 16004KT 4SM -SHRA BR OVC057 05/03 A3001 RMK SC8 SLP167 =
2018-04-25 07:53 METAR CYBG 250753Z 11005KT 5SM -SHRA BR OVC056 05/03 A3001 RMK SC8 SLP165 =
2018-04-25 07:00 METAR CYBG 250700Z 10005KT 25SM -SHRA OVC067 05/02 A2999 RMK AC8 PCPN VRY LGT
                 SLP161 =
2018-04-25 06:00 METAR CYBG 250600Z 10005KT 25SM OVC100 06/M00 A3000 RMK AC8 SLP163 =
2018-04-25 05:00 METAR CYBG 250500Z 09004KT 25SM OVC110 09/M01 A3000 RMK AC8 SLP164 =
2018-04-25 04:00 METAR CYBG 250400Z 20003KT 25SM OVC130 10/M00 A3001 RMK AC8 SLP165 =
2018-04-25 03:00 METAR CYBG 250300Z 20004KT 25SM OVC160 11/M01 A3001 RMK AC8 SLP167 =
2018-04-25 02:00 METAR CYBG 250200Z 19005KT 25SM BKN140 10/M03 A3002 RMK AC7 SLP171 =
2018-04-25 01:00 METAR CYBG 250100Z 19002KT 25SM FEW095 BKN170 BKN220 14/M05 A3003 RMK AC1AC4CI2
                 SLP173 =
2018-04-25 00:00 METAR CYBG 250000Z 21004KT 25SM FEW095 FEW180 BKN220 11/M02 A3002 RMK AC1AC2CI5
                 SLP171 =
2018-04-24 23:00 METAR CYBG 242300Z 00000KT 25SM FEW095 OVC220 15/M03 A3001 RMK AC2CI6 SLP168 =
2018-04-24 22:00 METAR CYBG 242200Z 23002KT 25SM FEW095 OVC240 18/M05 A3001 RMK AC2CI6 SLP169 =
2018-04-24 21:00 METAR CYBG 242100Z 30007KT 25SM FEW095 OVC220 20/M06 A3001 RMK AC2CI6 SLP168 =
2018-04-24 20:00 METAR CYBG 242000Z 28007KT 25SM SCT095 OVC220 19/M04 A3002 RMK AC3CI5 SLP171 =
2018-04-24 19:00 METAR CYBG 241900Z 29008KT 25SM BKN095 BKN220 20/M04 A3003 RMK AC5CI1 SLP175 =
2018-04-24 18:00 METAR CYBG 241800Z 28008KT 25SM SCT095 BKN220 19/M04 A3006 RMK AC3CI3 SLP183 =
2018-04-24 17:00 METAR CYBG 241700Z 00000KT 25SM BKN095 BKN220 17/M03 A3008 RMK AC5CI2 SLP190 =
2018-04-24 16:00 METAR CYBG 241600Z 09004KT 25SM SCT190 BKN220 15/M04 A3010 RMK AC4CI2 SLP197 =
2018-04-24 15:00 METAR CYBG 241500Z 13003KT 25SM OVC210 13/M04 A3012 RMK CI8 SLP203 =
2018-04-24 14:00 METAR CYBG 241400Z 10004KT 25SM BKN210 10/M03 A3013 RMK CI7 SLP207 =
2018-04-24 13:00 METAR CYBG 241300Z 09004KT 25SM OVC210 07/M02 A3013 RMK CI8 SLP209 =

Support USWX by starting your Amazon purchase here.